createdAt,value
2022-08-02T00:00:12.572Z,20.40
2022-08-02T00:02:39.148Z,20.36
2022-08-02T00:05:06.134Z,20.32
2022-08-02T00:07:36.491Z,20.14
2022-08-02T00:10:09.048Z,20.31
2022-08-02T00:12:35.731Z,20.22
2022-08-02T00:15:02.278Z,20.25
2022-08-02T00:17:29.403Z,20.25
2022-08-02T00:19:55.965Z,20.41
2022-08-02T00:22:22.480Z,20.22
2022-08-02T00:24:49.006Z,20.11
2022-08-02T00:27:15.533Z,20.05
2022-08-02T00:29:50.357Z,20.16
2022-08-02T00:32:20.738Z,19.90
2022-08-02T00:34:47.599Z,19.85
2022-08-02T00:37:14.307Z,19.97
2022-08-02T00:39:42.418Z,19.95
2022-08-02T00:42:09.474Z,19.92
2022-08-02T00:44:36.267Z,19.73
2022-08-02T00:47:02.895Z,19.65
2022-08-02T00:49:29.720Z,19.56
2022-08-02T00:51:56.445Z,19.64
2022-08-02T00:54:23.244Z,19.57
2022-08-02T00:56:51.166Z,19.66
2022-08-02T00:59:18.597Z,19.52
2022-08-02T01:01:57.012Z,19.32
2022-08-02T01:04:30.560Z,19.55
2022-08-02T01:07:00.431Z,19.59
2022-08-02T01:09:27.401Z,19.40
2022-08-02T01:11:54.149Z,19.26
2022-08-02T01:14:24.220Z,19.23
2022-08-02T01:16:59.900Z,19.30
2022-08-02T01:19:43.621Z,19.34
2022-08-02T01:22:59.274Z,19.29
2022-08-02T01:25:54.998Z,19.24
2022-08-02T01:28:36.671Z,19.30
2022-08-02T01:31:21.186Z,19.17
2022-08-02T01:34:10.332Z,19.12
2022-08-02T01:36:40.068Z,18.95
2022-08-02T01:39:11.409Z,18.81
2022-08-02T01:41:58.818Z,18.87
2022-08-02T01:44:28.686Z,18.89
2022-08-02T01:47:01.071Z,18.91
2022-08-02T01:49:29.767Z,18.88
2022-08-02T01:52:17.061Z,18.87
2022-08-02T01:54:46.464Z,18.69
2022-08-02T01:57:15.939Z,18.70
2022-08-02T01:59:45.963Z,18.62
2022-08-02T02:02:14.836Z,18.46
2022-08-02T02:04:43.767Z,18.42
2022-08-02T02:07:13.134Z,18.35
2022-08-02T02:09:50.250Z,18.52
2022-08-02T02:12:19.044Z,18.51
2022-08-02T02:14:51.511Z,18.33
2022-08-02T02:18:11.831Z,18.18
2022-08-02T02:20:13.015Z,18.02
2022-08-02T02:22:40.008Z,18.05
2022-08-02T02:25:08.590Z,18.05
2022-08-02T02:27:41.475Z,18.04
2022-08-02T02:30:12.170Z,18.04
2022-08-02T02:32:40.871Z,18.09
2022-08-02T02:35:10.599Z,18.19
2022-08-02T02:37:38.599Z,18.37
2022-08-02T02:40:06.624Z,18.39
2022-08-02T02:42:34.571Z,18.35
2022-08-02T02:45:03.065Z,18.29
2022-08-02T02:47:41.078Z,18.38
2022-08-02T02:50:09.726Z,18.18
2022-08-02T02:52:38.469Z,18.13
2022-08-02T02:55:06.509Z,18.28
2022-08-02T02:57:33.666Z,18.15
2022-08-02T03:00:01.319Z,18.13
2022-08-02T03:02:28.159Z,18.26
2022-08-02T03:04:57.979Z,18.30
2022-08-02T03:07:26.344Z,18.28
2022-08-02T03:09:54.499Z,18.50
2022-08-02T03:12:30.254Z,18.47
2022-08-02T03:15:01.827Z,18.70
2022-08-02T03:17:45.123Z,18.31
2022-08-02T03:20:19.938Z,18.15
2022-08-02T03:22:47.270Z,17.91
2022-08-02T03:25:15.990Z,17.76
2022-08-02T03:27:42.790Z,17.64
2022-08-02T03:30:12.224Z,17.68
2022-08-02T03:32:41.305Z,17.62
2022-08-02T03:35:10.472Z,17.64
2022-08-02T03:37:37.878Z,17.62
2022-08-02T03:40:07.989Z,17.67
2022-08-02T03:42:34.960Z,17.74
2022-08-02T03:45:08.119Z,17.67
2022-08-02T03:47:37.471Z,17.25
2022-08-02T03:50:05.063Z,17.21
2022-08-02T03:52:33.199Z,16.98
2022-08-02T03:54:59.973Z,17.17
2022-08-02T03:57:26.785Z,17.22
2022-08-02T03:59:53.298Z,17.12
2022-08-02T04:02:19.842Z,17.16
2022-08-02T04:04:46.365Z,17.33
2022-08-02T04:07:12.921Z,17.42
2022-08-02T04:09:39.449Z,17.28
2022-08-02T04:12:06.158Z,17.02
2022-08-02T04:14:33.289Z,17.13
2022-08-02T04:17:06.347Z,17.22
2022-08-02T04:19:37.318Z,17.20
2022-08-02T04:22:06.094Z,17.18
2022-08-02T04:24:39.485Z,17.08
2022-08-02T04:27:48.979Z,17.21
2022-08-02T04:29:54.803Z,17.43
2022-08-02T04:32:22.050Z,17.48
2022-08-02T04:37:37.653Z,17.62
2022-08-02T04:40:13.562Z,17.52
2022-08-02T04:42:40.101Z,17.56
2022-08-02T04:45:08.091Z,17.55
2022-08-02T04:48:02.326Z,17.49
2022-08-02T04:50:21.481Z,17.45
2022-08-02T04:52:48.076Z,17.52
2022-08-02T04:55:14.813Z,17.73
2022-08-02T04:57:57.301Z,18.60
2022-08-02T05:00:24.812Z,19.28
2022-08-02T05:02:52.540Z,19.65
2022-08-02T05:05:19.084Z,20.02
2022-08-02T05:07:45.650Z,20.80
2022-08-02T05:10:12.305Z,21.16
2022-08-02T05:12:39.632Z,21.19
2022-08-02T05:15:07.329Z,21.83
2022-08-02T05:17:39.551Z,21.47
2022-08-02T05:20:14.519Z,21.51
2022-08-02T05:22:41.776Z,20.08
2022-08-02T05:25:08.976Z,19.97
2022-08-02T05:27:35.614Z,20.13
2022-08-02T05:30:02.729Z,20.22
2022-08-02T05:32:29.330Z,20.36
2022-08-02T05:34:55.924Z,20.71
2022-08-02T05:37:24.987Z,21.24
2022-08-02T05:39:55.577Z,21.63
2022-08-02T05:42:23.626Z,21.30
2022-08-02T05:44:50.371Z,21.18
2022-08-02T05:47:17.044Z,21.37
2022-08-02T05:49:43.738Z,21.52
2022-08-02T05:52:18.537Z,21.82
2022-08-02T05:55:03.182Z,23.59
2022-08-02T05:58:04.895Z,24.97
2022-08-02T06:00:33.787Z,24.42
2022-08-02T06:03:26.603Z,26.38
2022-08-02T06:06:05.372Z,26.07
2022-08-02T06:08:37.289Z,25.29
2022-08-02T06:11:06.006Z,24.92
2022-08-02T06:13:33.273Z,24.70
2022-08-02T06:16:00.442Z,25.59
2022-08-02T06:18:28.861Z,28.75
2022-08-02T06:22:30.001Z,30.08
2022-08-02T06:23:58.517Z,29.10
2022-08-02T06:26:27.702Z,30.57
2022-08-02T06:28:56.565Z,29.68
2022-08-02T06:31:23.160Z,27.29
2022-08-02T06:34:00.366Z,27.24
2022-08-02T06:36:39.019Z,27.88
2022-08-02T06:39:20.997Z,27.69
2022-08-02T06:41:49.966Z,26.17
2022-08-02T06:47:11.134Z,29.10
2022-08-02T06:49:51.515Z,31.13
2022-08-02T06:52:31.302Z,32.32
2022-08-02T06:55:02.491Z,33.66
2022-08-02T06:57:30.004Z,32.41
2022-08-02T06:59:56.922Z,29.20
2022-08-02T07:02:23.890Z,30.30
2022-08-02T07:04:50.721Z,29.31
2022-08-02T07:07:17.341Z,32.38
2022-08-02T07:09:57.248Z,31.34
2022-08-02T07:12:31.108Z,30.89
2022-08-02T07:14:59.598Z,31.45
2022-08-02T07:17:27.165Z,32.47
2022-08-02T07:19:53.806Z,31.55
2022-08-02T07:22:23.115Z,31.58
2022-08-02T07:24:53.259Z,33.04
2022-08-02T07:27:21.297Z,30.47
2022-08-02T07:29:48.475Z,29.03
2022-08-02T07:32:16.937Z,28.48
2022-08-02T07:34:50.498Z,29.59
2022-08-02T07:37:35.743Z,31.14
2022-08-02T07:40:13.346Z,31.88
2022-08-02T07:42:44.716Z,32.02
2022-08-02T07:45:12.556Z,32.11
2022-08-02T07:47:43.404Z,31.80
2022-08-02T07:50:12.163Z,33.26
2022-08-02T07:52:42.927Z,33.97
2022-08-02T07:55:10.915Z,33.69
2022-08-02T07:57:42.519Z,36.51
2022-08-02T08:00:12.866Z,33.49
2022-08-02T08:02:39.765Z,34.47
2022-08-02T08:05:06.989Z,32.18
2022-08-02T08:07:34.272Z,31.96
2022-08-02T08:10:01.094Z,32.03
2022-08-02T08:12:28.030Z,35.22
2022-08-02T08:14:54.565Z,38.10
2022-08-02T08:17:21.674Z,40.26
2022-08-02T08:19:51.432Z,39.67
2022-08-02T08:22:22.572Z,39.88
2022-08-02T08:24:50.113Z,37.51
2022-08-02T08:27:17.968Z,37.80
2022-08-02T08:29:44.697Z,35.41
2022-08-02T08:32:17.277Z,34.63
2022-08-02T08:34:48.420Z,34.12
2022-08-02T08:37:17.755Z,34.88
2022-08-02T08:39:57.129Z,36.91
2022-08-02T08:42:27.052Z,38.45
2022-08-02T08:44:58.803Z,35.62
2022-08-02T08:47:40.632Z,38.54
2022-08-02T08:50:24.803Z,34.74
2022-08-02T08:53:04.740Z,37.24
2022-08-02T08:55:32.925Z,35.66
2022-08-02T08:58:01.216Z,39.17
2022-08-02T09:00:30.146Z,36.70
2022-08-02T09:02:57.011Z,38.65
2022-08-02T09:05:23.764Z,41.46
2022-08-02T09:07:51.747Z,42.69
2022-08-02T09:10:37.210Z,37.63
2022-08-02T09:13:38.589Z,41.26
2022-08-02T09:16:11.729Z,36.86
2022-08-02T09:18:45.294Z,42.24
2022-08-02T09:21:13.793Z,43.29
2022-08-02T09:23:43.490Z,43.16
2022-08-02T09:26:14.488Z,42.73
2022-08-02T09:28:43.486Z,37.95
2022-08-02T09:31:15.860Z,37.51
2022-08-02T09:33:46.493Z,36.80
2022-08-02T09:36:15.232Z,38.47
2022-08-02T09:38:52.934Z,36.39
2022-08-02T09:41:22.842Z,37.44
2022-08-02T09:44:03.815Z,38.80
2022-08-02T09:46:37.446Z,39.11
2022-08-02T09:49:08.197Z,38.54
2022-08-02T09:51:59.410Z,37.34
2022-08-02T09:54:28.867Z,38.55
2022-08-02T09:57:00.841Z,36.74
2022-08-02T09:59:29.183Z,37.43
2022-08-02T10:02:02.045Z,40.11
2022-08-02T10:04:34.133Z,38.59
2022-08-02T10:07:19.011Z,38.66
2022-08-02T10:09:47.620Z,37.97
2022-08-02T10:12:15.477Z,36.46
2022-08-02T10:14:43.699Z,36.27
2022-08-02T10:17:10.381Z,35.65
2022-08-02T10:20:00.385Z,38.84
2022-08-02T10:22:25.131Z,38.26
2022-08-02T10:24:52.457Z,41.64
2022-08-02T10:27:20.994Z,42.82
2022-08-02T10:29:54.286Z,40.48
2022-08-02T10:32:38.408Z,39.33
2022-08-02T10:35:20.232Z,36.85
2022-08-02T10:37:58.279Z,40.30
2022-08-02T10:40:26.861Z,38.09
2022-08-02T10:42:55.576Z,38.59
2022-08-02T10:45:23.063Z,37.68
2022-08-02T10:48:09.965Z,40.53
2022-08-02T10:50:45.294Z,42.04
2022-08-02T10:53:32.313Z,37.64
2022-08-02T10:56:01.159Z,37.63
2022-08-02T10:58:31.596Z,37.35
2022-08-02T11:01:02.969Z,36.35
2022-08-02T11:03:29.590Z,39.14
2022-08-02T11:06:09.661Z,39.66
2022-08-02T11:09:33.722Z,38.11
2022-08-02T11:12:00.404Z,37.00
2022-08-02T11:14:27.217Z,37.22
2022-08-02T11:16:56.558Z,39.79
2022-08-02T11:19:24.001Z,39.96
2022-08-02T11:22:22.297Z,36.39
2022-08-02T11:24:51.819Z,39.26
2022-08-02T11:27:21.586Z,41.42
2022-08-02T11:29:49.800Z,41.98
2022-08-02T11:32:31.235Z,43.44
2022-08-02T11:34:58.823Z,42.68
2022-08-02T11:37:37.078Z,42.16
2022-08-02T11:40:19.021Z,38.58
2022-08-02T11:42:51.488Z,37.84
2022-08-02T11:45:29.099Z,37.61
2022-08-02T11:47:56.400Z,34.35
2022-08-02T11:50:29.745Z,36.09
2022-08-02T11:52:57.567Z,35.82
2022-08-02T11:55:32.073Z,35.10
2022-08-02T11:58:03.054Z,36.51
2022-08-02T12:00:31.719Z,37.35
2022-08-02T12:02:58.308Z,38.32
2022-08-02T12:05:51.147Z,38.48
2022-08-02T12:08:13.470Z,38.92
2022-08-02T12:10:48.281Z,37.44
2022-08-02T12:13:15.182Z,38.71
2022-08-02T12:15:45.213Z,39.74
2022-08-02T12:18:38.554Z,38.19
2022-08-02T12:21:22.167Z,37.12
2022-08-02T12:24:00.351Z,34.99
2022-08-02T12:26:29.246Z,35.40
2022-08-02T12:28:58.856Z,35.04
2022-08-02T12:31:57.530Z,34.95
2022-08-02T12:34:31.914Z,34.69
2022-08-02T12:37:09.421Z,35.34
2022-08-02T12:39:43.445Z,34.87
2022-08-02T12:42:12.426Z,35.11
2022-08-02T12:44:51.235Z,33.88
2022-08-02T12:47:17.965Z,33.92
2022-08-02T12:50:31.401Z,35.33
2022-08-02T12:53:18.221Z,36.16
2022-08-02T12:56:03.849Z,36.50
2022-08-02T12:58:31.761Z,35.77
2022-08-02T13:01:00.356Z,35.35
2022-08-02T13:04:11.736Z,33.93
2022-08-02T13:06:41.287Z,33.75
2022-08-02T13:09:02.074Z,33.87
2022-08-02T13:11:28.697Z,35.65
2022-08-02T13:13:55.926Z,36.27
2022-08-02T13:16:30.729Z,36.80
2022-08-02T13:18:58.780Z,36.09
2022-08-02T13:21:40.192Z,37.07
2022-08-02T13:24:37.651Z,34.34
2022-08-02T13:26:55.082Z,34.28
2022-08-02T13:29:21.690Z,35.00
2022-08-02T13:31:48.393Z,36.90
2022-08-02T13:34:16.516Z,36.49
2022-08-02T13:36:43.174Z,36.96
2022-08-02T13:39:11.839Z,37.05
2022-08-02T13:41:38.551Z,36.82
2022-08-02T13:44:10.323Z,37.09
2022-08-02T13:46:39.744Z,37.59
2022-08-02T13:49:18.396Z,34.78
2022-08-02T13:51:45.303Z,32.42
2022-08-02T13:54:11.828Z,31.97
2022-08-02T13:56:38.440Z,31.51
2022-08-02T13:59:26.301Z,30.82
2022-08-02T14:01:53.204Z,30.68
2022-08-02T14:04:19.838Z,30.13
2022-08-02T14:06:46.477Z,29.82
2022-08-02T14:09:15.703Z,29.88
2022-08-02T14:11:44.851Z,29.87
2022-08-02T14:14:16.050Z,30.39
2022-08-02T14:16:44.528Z,30.50
2022-08-02T14:19:16.719Z,30.46
2022-08-02T14:21:48.413Z,30.15
2022-08-02T14:24:17.049Z,30.50
2022-08-02T14:26:45.860Z,30.39
2022-08-02T14:29:13.460Z,30.66
2022-08-02T14:31:44.401Z,30.74
2022-08-02T14:34:13.214Z,30.29
2022-08-02T14:36:40.028Z,30.27
2022-08-02T14:39:06.978Z,29.93
2022-08-02T14:41:59.570Z,30.15
2022-08-02T14:44:23.229Z,29.97
2022-08-02T14:46:51.547Z,30.16
2022-08-02T14:49:25.499Z,30.22
2022-08-02T14:51:57.065Z,29.91
2022-08-02T14:54:31.360Z,29.97
2022-08-02T14:56:59.944Z,29.70
2022-08-02T14:59:27.074Z,29.82
2022-08-02T15:01:54.426Z,29.95
2022-08-02T15:04:21.217Z,29.79
2022-08-02T15:06:51.212Z,30.16
2022-08-02T15:09:18.486Z,30.63
2022-08-02T15:11:47.457Z,30.49
2022-08-02T15:14:25.402Z,30.69
2022-08-02T15:16:57.020Z,30.70
2022-08-02T15:19:28.045Z,30.63
2022-08-02T15:22:16.229Z,30.14
2022-08-02T15:27:13.530Z,30.59
2022-08-02T15:29:40.877Z,30.67
2022-08-02T15:32:07.577Z,30.90
2022-08-02T15:34:34.202Z,30.94
2022-08-02T15:37:00.808Z,30.32
2022-08-02T15:39:27.433Z,30.24
2022-08-02T15:41:53.924Z,30.37
2022-08-02T15:44:20.498Z,30.49
2022-08-02T15:46:47.083Z,30.79
2022-08-02T15:49:13.735Z,31.11
2022-08-02T15:51:40.322Z,30.95
2022-08-02T15:54:06.911Z,30.83
2022-08-02T15:56:33.461Z,31.13
2022-08-02T15:58:59.955Z,30.97
2022-08-02T16:01:37.170Z,30.65
2022-08-02T16:04:07.083Z,30.76
2022-08-02T16:06:34.669Z,31.10
2022-08-02T16:09:01.475Z,31.25
2022-08-02T16:11:28.158Z,30.71
2022-08-02T16:13:55.057Z,30.59
2022-08-02T16:16:23.453Z,30.58
2022-08-02T16:18:50.090Z,30.64
2022-08-02T16:21:16.929Z,30.62
2022-08-02T16:23:58.684Z,30.58
2022-08-02T16:26:30.200Z,30.64
2022-08-02T16:28:57.044Z,30.69
2022-08-02T16:31:23.919Z,30.77
2022-08-02T16:33:50.530Z,30.71
2022-08-02T16:36:24.452Z,30.70
2022-08-02T16:38:52.016Z,30.70
2022-08-02T16:41:18.669Z,30.51
2022-08-02T16:43:45.196Z,30.32
2022-08-02T16:46:11.832Z,30.46
2022-08-02T16:48:39.132Z,30.21
2022-08-02T16:51:13.278Z,29.74
2022-08-02T16:54:00.097Z,29.80
2022-08-02T16:56:28.927Z,29.66
2022-08-02T16:58:59.489Z,29.35
2022-08-02T17:02:01.782Z,29.38
2022-08-02T17:04:15.595Z,29.32
2022-08-02T17:06:51.696Z,29.40
2022-08-02T17:10:02.238Z,29.34
2022-08-02T17:12:15.903Z,29.33
2022-08-02T17:14:54.850Z,29.22
2022-08-02T17:17:33.821Z,29.37
2022-08-02T17:20:01.902Z,29.45
2022-08-02T17:22:28.874Z,29.17
2022-08-02T17:24:55.824Z,29.19
2022-08-02T17:27:22.666Z,29.03
2022-08-02T17:29:49.467Z,29.12
2022-08-02T17:32:18.471Z,29.12
2022-08-02T17:34:56.340Z,29.04
2022-08-02T17:37:27.220Z,28.99
2022-08-02T17:39:55.575Z,28.95
2022-08-02T17:42:23.772Z,28.75
2022-08-02T17:44:54.463Z,28.79
2022-08-02T17:47:22.100Z,28.67
2022-08-02T17:49:49.212Z,28.72
2022-08-02T17:52:52.130Z,28.54
2022-08-02T17:55:07.897Z,28.50
2022-08-02T17:57:55.250Z,28.46
2022-08-02T18:00:21.357Z,28.42
2022-08-02T18:02:50.503Z,28.33
2022-08-02T18:05:20.293Z,28.28
2022-08-02T18:07:53.146Z,28.33
2022-08-02T18:10:22.335Z,28.19
2022-08-02T18:12:50.003Z,28.13
2022-08-02T18:15:17.669Z,28.14
2022-08-02T18:17:46.939Z,28.11
2022-08-02T18:20:13.609Z,28.05
2022-08-02T18:22:43.005Z,27.99
2022-08-02T18:25:11.836Z,27.92
2022-08-02T18:27:58.383Z,27.93
2022-08-02T18:30:28.575Z,27.84
2022-08-02T18:33:57.910Z,27.73
2022-08-02T18:35:42.664Z,27.70
2022-08-02T18:38:11.571Z,27.66
2022-08-02T18:40:38.820Z,27.63
2022-08-02T18:43:07.214Z,27.54
2022-08-02T18:46:02.327Z,27.37
2022-08-02T18:48:21.935Z,27.32
2022-08-02T18:50:48.784Z,27.19
2022-08-02T18:53:39.164Z,27.03
2022-08-02T18:56:06.973Z,27.09
2022-08-02T18:58:35.094Z,27.18
2022-08-02T19:01:05.142Z,27.02
2022-08-02T19:03:41.414Z,27.07
2022-08-02T19:06:19.677Z,26.74
2022-08-02T19:08:47.340Z,26.61
2022-08-02T19:11:35.205Z,26.13
2022-08-02T19:14:02.335Z,26.18
2022-08-02T19:16:37.097Z,26.13
2022-08-02T19:19:05.759Z,26.13
2022-08-02T19:22:18.229Z,26.36
2022-08-02T19:24:19.379Z,26.36
2022-08-02T19:26:51.919Z,26.43
2022-08-02T19:29:42.166Z,26.46
2022-08-02T19:32:42.298Z,26.43
2022-08-02T19:34:55.798Z,26.33
2022-08-02T19:37:22.426Z,26.42
2022-08-02T19:39:49.007Z,26.30
2022-08-02T19:42:16.871Z,26.29
2022-08-02T19:44:45.197Z,26.17
2022-08-02T19:47:12.834Z,26.01
2022-08-02T19:49:48.788Z,25.33
2022-08-02T19:52:21.830Z,24.92
2022-08-02T19:54:55.533Z,24.73
2022-08-02T19:57:25.228Z,24.55
2022-08-02T19:59:52.758Z,24.41
2022-08-02T20:02:21.750Z,24.70
2022-08-02T20:04:50.385Z,24.46
2022-08-02T20:07:54.316Z,24.43
2022-08-02T20:10:11.131Z,24.74
2022-08-02T20:12:54.212Z,24.24
2022-08-02T20:15:21.826Z,24.26
2022-08-02T20:20:38.455Z,23.93
2022-08-02T20:23:33.607Z,23.71
2022-08-02T20:26:02.316Z,23.78
2022-08-02T20:28:29.074Z,23.47
2022-08-02T20:30:55.713Z,23.45
2022-08-02T20:33:23.253Z,23.39
2022-08-02T20:35:53.310Z,23.36
2022-08-02T20:38:24.997Z,23.30
2022-08-02T20:40:56.503Z,23.19
2022-08-02T20:43:23.156Z,23.25
2022-08-02T20:45:58.677Z,23.43
2022-08-02T20:48:29.694Z,23.31
2022-08-02T20:50:56.941Z,23.22
2022-08-02T20:53:26.047Z,23.16
2022-08-02T20:55:56.904Z,23.19
2022-08-02T20:58:27.179Z,23.05
2022-08-02T21:00:58.591Z,22.93
2022-08-02T21:03:25.672Z,23.11
2022-08-02T21:06:05.723Z,23.13
2022-08-02T21:08:34.608Z,22.97
2022-08-02T21:11:01.291Z,22.79
2022-08-02T21:13:46.690Z,22.77
2022-08-02T21:16:18.104Z,22.64
2022-08-02T21:18:45.987Z,22.58
2022-08-02T21:21:14.470Z,22.82
2022-08-02T21:23:48.571Z,22.95
2022-08-02T21:26:28.146Z,22.91
2022-08-02T21:28:58.030Z,22.88
2022-08-02T21:31:29.666Z,22.78
2022-08-02T21:33:59.465Z,22.59
2022-08-02T21:36:31.446Z,22.42
2022-08-02T21:39:05.379Z,22.32
2022-08-02T21:41:39.918Z,22.29
2022-08-02T21:44:15.876Z,22.31
2022-08-02T21:46:44.560Z,22.45
2022-08-02T21:49:12.489Z,22.51
2022-08-02T21:51:42.686Z,22.52
2022-08-02T21:54:18.375Z,22.31
2022-08-02T21:56:48.236Z,21.96
2022-08-02T21:59:17.405Z,21.86
2022-08-02T22:01:53.035Z,21.88
2022-08-02T22:04:20.987Z,21.94
2022-08-02T22:06:49.092Z,21.87
2022-08-02T22:09:44.451Z,21.73
2022-08-02T22:12:06.522Z,21.65
2022-08-02T22:14:39.613Z,21.65
2022-08-02T22:17:08.749Z,21.53
2022-08-02T22:19:40.114Z,21.56
2022-08-02T22:22:20.071Z,21.61
2022-08-02T22:24:46.664Z,21.58
2022-08-02T22:27:14.221Z,21.64
2022-08-02T22:29:40.733Z,21.64
2022-08-02T22:32:10.779Z,21.42
2022-08-02T22:34:51.671Z,21.48
2022-08-02T22:38:14.528Z,21.64
2022-08-02T22:40:20.815Z,21.71
2022-08-02T22:42:47.423Z,21.56
2022-08-02T22:45:14.077Z,21.43
2022-08-02T22:47:50.843Z,21.40
2022-08-02T22:50:18.194Z,21.35
2022-08-02T22:52:46.931Z,21.31
2022-08-02T22:55:17.797Z,21.47
2022-08-02T22:57:56.323Z,21.21
2022-08-02T22:59:06.569Z,24.07
2022-08-02T23:00:24.812Z,21.06
2022-08-02T23:02:51.496Z,20.91
2022-08-02T23:05:18.053Z,21.08
2022-08-02T23:07:44.565Z,21.08
2022-08-02T23:10:11.105Z,21.36
2022-08-02T23:12:37.618Z,21.17
2022-08-02T23:15:04.548Z,20.88
2022-08-02T23:17:49.335Z,20.76
2022-08-02T23:20:19.853Z,20.88
2022-08-02T23:22:46.386Z,20.84
2022-08-02T23:25:14.345Z,20.80
2022-08-02T23:27:50.418Z,20.65
2022-08-02T23:30:18.425Z,20.69
2022-08-02T23:32:47.729Z,20.51
2022-08-02T23:35:17.282Z,20.67
2022-08-02T23:37:59.831Z,20.66
2022-08-02T23:40:39.394Z,20.66
2022-08-02T23:43:14.010Z,20.61
2022-08-02T23:45:43.204Z,20.57
2022-08-02T23:48:09.724Z,20.46
2022-08-02T23:50:36.435Z,20.48
2022-08-02T23:53:02.959Z,20.37
2022-08-02T23:55:29.513Z,20.51
2022-08-02T23:57:56.089Z,20.47
